createdAt,value
2019-01-04T00:01:24.740Z,0.40
2019-01-04T00:04:20.751Z,0.40
2019-01-04T00:07:08.247Z,0.40
2019-01-04T00:09:55.479Z,0.40
2019-01-04T00:12:43.360Z,0.50
2019-01-04T00:15:30.685Z,0.40
2019-01-04T00:18:18.272Z,0.40
2019-01-04T00:21:05.584Z,0.50
2019-01-04T00:23:52.757Z,0.50
2019-01-04T00:26:41.300Z,0.50
2019-01-04T00:29:28.519Z,0.50
2019-01-04T00:32:18.151Z,0.50
2019-01-04T00:35:06.447Z,0.50
2019-01-04T00:37:54.124Z,0.50
2019-01-04T00:40:41.657Z,0.50
2019-01-04T00:43:29.614Z,0.40
2019-01-04T00:46:17.327Z,0.40
2019-01-04T00:49:05.192Z,0.50
2019-01-04T00:51:53.176Z,0.50
2019-01-04T00:54:41.107Z,0.40
2019-01-04T00:58:04.699Z,0.50
2019-01-04T01:01:44.829Z,0.40
2019-01-04T01:05:15.911Z,0.40
2019-01-04T01:08:44.874Z,0.40
2019-01-04T01:11:58.727Z,0.30
2019-01-04T01:15:17.311Z,0.30
2019-01-04T01:18:34.348Z,0.20
2019-01-04T01:22:24.893Z,0.10
2019-01-04T01:25:39.983Z,0.10
2019-01-04T01:29:03.712Z,0.10
2019-01-04T01:31:59.500Z,0.10
2019-01-04T01:35:31.477Z,0.10
2019-01-04T01:38:57.910Z,0.10
2019-01-04T01:42:09.687Z,0.10
2019-01-04T01:45:33.445Z,0.10
2019-01-04T01:48:35.275Z,0.10
2019-01-04T01:52:00.256Z,0.10
2019-01-04T01:54:47.372Z,0.10
2019-01-04T01:57:34.497Z,0.10
2019-01-04T02:00:21.808Z,0.10
2019-01-04T02:03:09.464Z,0.10
2019-01-04T02:05:56.935Z,0.10
2019-01-04T02:08:44.422Z,0.20
2019-01-04T02:11:32.336Z,0.20
2019-01-04T02:14:19.766Z,0.20
2019-01-04T02:17:07.231Z,0.30
2019-01-04T02:19:55.547Z,0.20
2019-01-04T02:22:43.527Z,0.30
2019-01-04T02:25:31.285Z,0.20
2019-01-04T02:28:20.171Z,0.20
2019-01-04T02:31:07.766Z,0.20
2019-01-04T02:33:55.365Z,0.20
2019-01-04T02:36:42.775Z,0.20
2019-01-04T02:39:30.559Z,0.30
2019-01-04T02:42:18.365Z,0.30
2019-01-04T02:45:06.765Z,0.30
2019-01-04T02:47:54.191Z,0.30
2019-01-04T02:50:41.564Z,0.30
2019-01-04T02:53:29.104Z,0.30
2019-01-04T02:56:16.669Z,0.30
2019-01-04T02:59:04.145Z,0.30
2019-01-04T03:01:51.789Z,0.30
2019-01-04T03:04:39.257Z,0.40
2019-01-04T03:07:26.751Z,0.30
2019-01-04T03:10:14.236Z,0.30
2019-01-04T03:13:01.976Z,0.40
2019-01-04T03:15:50.093Z,0.40
2019-01-04T03:18:37.259Z,0.30
2019-01-04T03:21:24.974Z,0.30
2019-01-04T03:24:12.694Z,0.30
2019-01-04T03:27:00.598Z,0.30
2019-01-04T03:29:48.204Z,0.30
2019-01-04T03:32:35.538Z,0.40
2019-01-04T03:35:44.290Z,0.40
2019-01-04T03:38:32.052Z,0.40
2019-01-04T03:41:19.633Z,0.50
2019-01-04T03:44:07.102Z,0.50
2019-01-04T03:46:54.407Z,0.60
2019-01-04T03:49:42.395Z,0.60
2019-01-04T03:52:29.855Z,0.70
2019-01-04T03:55:17.448Z,0.70
2019-01-04T03:58:04.747Z,0.80
2019-01-04T04:00:51.888Z,0.90
2019-01-04T04:03:39.209Z,0.90
2019-01-04T04:06:26.747Z,0.90
2019-01-04T04:09:14.363Z,1.00
2019-01-04T04:12:01.919Z,1.00
2019-01-04T04:14:49.104Z,1.00
2019-01-04T04:17:36.357Z,1.10
2019-01-04T04:20:24.174Z,1.10
2019-01-04T04:23:11.527Z,1.20
2019-01-04T04:25:59.142Z,1.20
2019-01-04T04:28:46.349Z,1.20
2019-01-04T04:31:33.912Z,1.30
2019-01-04T04:34:21.359Z,1.30
2019-01-04T04:37:08.800Z,1.40
2019-01-04T04:39:56.568Z,1.40
2019-01-04T04:42:45.016Z,1.50
2019-01-04T04:45:32.176Z,1.50
2019-01-04T04:48:19.663Z,1.60
2019-01-04T04:51:09.792Z,1.60
2019-01-04T04:53:57.683Z,1.70
2019-01-04T04:56:45.170Z,1.70
2019-01-04T04:59:32.847Z,1.70
2019-01-04T05:02:20.367Z,1.70
2019-01-04T05:05:07.825Z,1.80
2019-01-04T05:07:55.380Z,1.80
2019-01-04T05:10:42.836Z,1.80
2019-01-04T05:13:30.616Z,1.80
2019-01-04T05:16:18.024Z,1.90
2019-01-04T05:19:06.644Z,1.90
2019-01-04T05:21:54.167Z,1.90
2019-01-04T05:24:42.030Z,1.90
2019-01-04T05:27:29.659Z,1.90
2019-01-04T05:30:16.756Z,1.90
2019-01-04T05:33:04.379Z,1.90
2019-01-04T05:35:52.164Z,2.00
2019-01-04T05:38:39.336Z,2.00
2019-01-04T05:41:27.077Z,2.00
2019-01-04T05:44:14.811Z,2.00
2019-01-04T05:47:02.389Z,2.00
2019-01-04T05:49:50.029Z,2.10
2019-01-04T05:52:37.752Z,2.00
2019-01-04T05:55:25.509Z,2.00
2019-01-04T05:58:14.669Z,2.00
2019-01-04T06:01:02.271Z,2.00
2019-01-04T06:03:50.057Z,2.00
2019-01-04T06:06:38.281Z,2.00
2019-01-04T06:09:25.555Z,2.00
2019-01-04T06:12:13.216Z,2.10
2019-01-04T06:15:00.687Z,2.10
2019-01-04T06:17:47.939Z,2.00
2019-01-04T06:20:36.724Z,2.00
2019-01-04T06:23:25.167Z,1.90
2019-01-04T06:26:12.424Z,1.80
2019-01-04T06:29:00.519Z,1.80
2019-01-04T06:31:48.435Z,1.80
2019-01-04T06:34:35.973Z,1.80
2019-01-04T06:37:23.864Z,1.70
2019-01-04T06:40:13.296Z,1.70
2019-01-04T06:43:01.554Z,1.70
2019-01-04T06:45:51.119Z,1.80
2019-01-04T06:48:39.801Z,1.80
2019-01-04T06:51:27.924Z,1.80
2019-01-04T06:54:52.744Z,1.80
2019-01-04T06:57:40.024Z,1.90
2019-01-04T07:00:27.687Z,1.90
2019-01-04T07:03:14.952Z,1.90
2019-01-04T07:06:02.500Z,1.90
2019-01-04T07:08:49.696Z,1.90
2019-01-04T07:11:39.298Z,1.90
2019-01-04T07:14:26.940Z,1.90
2019-01-04T07:17:14.493Z,2.00
2019-01-04T07:20:01.971Z,2.00
2019-01-04T07:22:49.753Z,2.00
2019-01-04T07:25:37.555Z,2.00
2019-01-04T07:28:26.087Z,2.00
2019-01-04T07:31:13.556Z,2.00
2019-01-04T07:34:00.840Z,2.00
2019-01-04T07:36:48.561Z,2.10
2019-01-04T07:39:36.140Z,2.00
2019-01-04T07:42:23.703Z,2.00
2019-01-04T07:45:11.593Z,2.10
2019-01-04T07:47:59.632Z,2.10
2019-01-04T07:50:47.412Z,2.10
2019-01-04T07:53:34.962Z,2.20
2019-01-04T07:56:22.666Z,2.20
2019-01-04T07:59:11.976Z,2.30
2019-01-04T08:01:59.892Z,2.30
2019-01-04T08:04:48.233Z,2.30
2019-01-04T08:07:38.028Z,2.30
2019-01-04T08:10:25.484Z,2.40
2019-01-04T08:13:13.574Z,2.40
2019-01-04T08:16:01.257Z,2.40
2019-01-04T08:18:48.575Z,2.50
2019-01-04T08:21:36.505Z,2.50
2019-01-04T08:24:24.578Z,2.50
2019-01-04T08:27:11.975Z,2.50
2019-01-04T08:29:59.947Z,2.40
2019-01-04T08:32:47.475Z,2.50
2019-01-04T08:35:34.986Z,2.50
2019-01-04T08:38:22.509Z,2.40
2019-01-04T08:41:09.877Z,2.40
2019-01-04T08:43:57.450Z,2.40
2019-01-04T08:46:44.806Z,2.40
2019-01-04T08:49:31.979Z,2.40
2019-01-04T08:52:19.158Z,2.40
2019-01-04T08:55:09.367Z,2.40
2019-01-04T08:57:56.810Z,2.40
2019-01-04T09:00:43.943Z,2.40
2019-01-04T09:03:31.384Z,2.40
2019-01-04T09:06:19.365Z,2.50
2019-01-04T09:09:07.947Z,2.50
2019-01-04T09:11:55.552Z,2.50
2019-01-04T09:14:43.204Z,2.50
2019-01-04T09:17:30.833Z,2.60
2019-01-04T09:20:18.607Z,2.60
2019-01-04T09:23:06.028Z,2.60
2019-01-04T09:25:54.411Z,2.70
2019-01-04T09:28:42.389Z,2.70
2019-01-04T09:31:30.162Z,2.70
2019-01-04T09:34:17.662Z,2.70
2019-01-04T09:37:05.179Z,2.80
2019-01-04T09:39:52.991Z,2.80
2019-01-04T09:42:43.052Z,2.80
2019-01-04T09:45:30.829Z,2.90
2019-01-04T09:48:18.351Z,2.90
2019-01-04T09:51:06.256Z,2.90
2019-01-04T09:53:53.448Z,3.00
2019-01-04T09:56:41.211Z,3.00
2019-01-04T09:59:28.692Z,3.00
2019-01-04T10:02:16.303Z,3.00
2019-01-04T10:05:03.658Z,3.10
2019-01-04T10:07:51.523Z,3.10
2019-01-04T10:10:39.321Z,3.10
2019-01-04T10:13:26.824Z,3.20
2019-01-04T10:16:14.163Z,3.20
2019-01-04T10:19:01.583Z,3.20
2019-01-04T10:21:51.318Z,3.20
2019-01-04T10:24:39.043Z,3.30
2019-01-04T10:27:26.244Z,3.30
2019-01-04T10:30:29.452Z,3.30
2019-01-04T10:33:17.101Z,3.30
2019-01-04T10:36:04.393Z,3.30
2019-01-04T10:38:51.826Z,3.30
2019-01-04T10:41:39.852Z,3.30
2019-01-04T10:44:27.693Z,3.30
2019-01-04T10:47:15.041Z,3.30
2019-01-04T10:50:02.588Z,3.30
2019-01-04T10:52:51.862Z,3.30
2019-01-04T10:55:39.484Z,3.30
2019-01-04T10:58:26.893Z,3.30
2019-01-04T11:01:14.622Z,3.30
2019-01-04T11:04:02.208Z,3.20
2019-01-04T11:06:50.128Z,3.30
2019-01-04T11:09:37.604Z,3.30
2019-01-04T11:12:24.977Z,3.30
2019-01-04T11:15:12.543Z,3.30
2019-01-04T11:17:59.939Z,3.30
2019-01-04T11:20:48.951Z,3.40
2019-01-04T11:23:56.185Z,3.40
2019-01-04T11:27:12.265Z,3.40
2019-01-04T11:30:43.246Z,3.40
2019-01-04T11:33:44.353Z,3.30
2019-01-04T11:37:20.395Z,3.30
2019-01-04T11:40:21.753Z,3.30
2019-01-04T11:43:28.241Z,3.40
2019-01-04T11:46:26.931Z,3.40
2019-01-04T11:49:55.154Z,3.40
2019-01-04T11:52:56.092Z,3.40
2019-01-04T11:55:43.565Z,3.40
2019-01-04T11:58:30.695Z,3.40
2019-01-04T12:01:18.208Z,3.40
2019-01-04T12:04:05.579Z,3.40
2019-01-04T12:06:54.036Z,3.40
2019-01-04T12:09:41.627Z,3.40
2019-01-04T12:12:32.374Z,3.40
2019-01-04T12:15:19.917Z,3.30
2019-01-04T12:18:07.525Z,3.30
2019-01-04T12:20:54.591Z,3.30
2019-01-04T12:23:42.423Z,3.30
2019-01-04T12:26:29.852Z,3.30
2019-01-04T12:29:18.587Z,3.30
2019-01-04T12:32:05.845Z,3.30
2019-01-04T12:34:53.456Z,3.40
2019-01-04T12:37:40.790Z,3.30
2019-01-04T12:40:28.028Z,3.40
2019-01-04T12:43:17.063Z,3.40
2019-01-04T12:46:04.945Z,3.40
2019-01-04T12:48:52.335Z,3.40
2019-01-04T12:51:40.114Z,3.40
2019-01-04T12:54:27.710Z,3.40
2019-01-04T12:57:17.187Z,3.40
2019-01-04T13:00:10.145Z,3.40
2019-01-04T13:02:57.886Z,3.50
2019-01-04T13:05:45.228Z,3.50
2019-01-04T13:08:33.131Z,3.50
2019-01-04T13:11:20.931Z,3.50
2019-01-04T13:14:08.576Z,3.50
2019-01-04T13:16:56.264Z,3.50
2019-01-04T13:19:43.416Z,3.60
2019-01-04T13:22:30.819Z,3.60
2019-01-04T13:25:17.967Z,3.60
2019-01-04T13:28:05.508Z,3.60
2019-01-04T13:30:53.076Z,3.60
2019-01-04T13:33:40.428Z,3.60
2019-01-04T13:36:27.950Z,3.60
2019-01-04T13:39:16.574Z,3.60
2019-01-04T13:42:04.076Z,3.60
2019-01-04T13:44:51.493Z,3.60
2019-01-04T13:47:39.318Z,3.70
2019-01-04T13:50:27.102Z,3.60
2019-01-04T13:53:14.672Z,3.70
2019-01-04T13:56:02.490Z,3.70
2019-01-04T13:58:50.015Z,3.70
2019-01-04T14:01:37.836Z,3.70
2019-01-04T14:04:25.715Z,3.70
2019-01-04T14:07:13.514Z,3.80
2019-01-04T14:10:02.057Z,3.80
2019-01-04T14:12:49.789Z,3.80
2019-01-04T14:15:37.219Z,3.80
2019-01-04T14:18:24.434Z,3.80
2019-01-04T14:21:12.882Z,3.80
2019-01-04T14:24:00.810Z,3.80
2019-01-04T14:26:48.473Z,3.80
2019-01-04T14:29:36.035Z,3.90
2019-01-04T14:32:23.293Z,3.90
2019-01-04T14:35:10.707Z,3.90
2019-01-04T14:38:00.760Z,3.90
2019-01-04T14:40:48.560Z,3.90
2019-01-04T14:43:35.818Z,3.90
2019-01-04T14:46:23.753Z,3.90
2019-01-04T14:49:11.435Z,3.90
2019-01-04T14:51:59.179Z,3.90
2019-01-04T14:54:46.485Z,3.90
2019-01-04T14:57:36.444Z,3.90
2019-01-04T15:00:23.862Z,3.90
2019-01-04T15:03:11.121Z,3.90
2019-01-04T15:05:58.284Z,3.90
2019-01-04T15:08:47.707Z,3.90
2019-01-04T15:11:34.896Z,3.90
2019-01-04T15:14:22.411Z,3.90
2019-01-04T15:17:09.768Z,3.90
2019-01-04T15:19:57.451Z,3.90
2019-01-04T15:22:46.980Z,3.90
2019-01-04T15:25:34.576Z,3.90
2019-01-04T15:28:27.155Z,3.90
2019-01-04T15:31:14.935Z,4.00
2019-01-04T15:34:02.501Z,4.00
2019-01-04T15:36:49.812Z,4.00
2019-01-04T15:39:37.287Z,4.00
2019-01-04T15:42:25.668Z,4.00
2019-01-04T15:45:13.240Z,4.00
2019-01-04T15:48:00.759Z,4.00
2019-01-04T15:50:48.367Z,4.10
2019-01-04T15:53:36.073Z,4.10
2019-01-04T15:56:23.502Z,4.10
2019-01-04T15:59:10.991Z,4.10
2019-01-04T16:01:58.432Z,4.10
2019-01-04T16:04:46.414Z,4.10
2019-01-04T16:07:34.370Z,4.10
2019-01-04T16:10:21.615Z,4.10
2019-01-04T16:13:09.363Z,4.10
2019-01-04T16:15:57.309Z,4.10
2019-01-04T16:18:44.560Z,4.20
2019-01-04T16:21:31.989Z,4.10
2019-01-04T16:24:19.644Z,4.20
2019-01-04T16:27:08.433Z,4.20
2019-01-04T16:29:56.159Z,4.20
2019-01-04T16:32:43.899Z,4.20
2019-01-04T16:35:33.276Z,4.30
2019-01-04T16:38:23.852Z,4.20
2019-01-04T16:41:11.344Z,4.20
2019-01-04T16:44:00.081Z,4.20
2019-01-04T16:46:48.021Z,4.20
2019-01-04T16:49:38.789Z,4.30
2019-01-04T16:52:26.891Z,4.30
2019-01-04T16:55:14.284Z,4.30
2019-01-04T16:58:01.895Z,4.30
2019-01-04T17:00:50.932Z,4.30
2019-01-04T17:03:38.640Z,4.30
2019-01-04T17:06:25.761Z,4.30
2019-01-04T17:09:13.565Z,4.30
2019-01-04T17:12:01.119Z,4.40
2019-01-04T17:14:51.079Z,4.30
2019-01-04T17:17:38.835Z,4.40
2019-01-04T17:20:26.379Z,4.40
2019-01-04T17:23:14.279Z,4.40
2019-01-04T17:26:02.678Z,4.40
2019-01-04T17:28:50.174Z,4.40
2019-01-04T17:31:39.364Z,4.50
2019-01-04T17:34:27.771Z,4.40
2019-01-04T17:37:17.144Z,4.40
2019-01-04T17:40:06.971Z,4.50
2019-01-04T17:42:54.923Z,4.40
2019-01-04T17:45:42.877Z,4.50
2019-01-04T17:48:30.327Z,4.50
2019-01-04T17:51:18.289Z,4.50
2019-01-04T17:54:05.842Z,4.50
2019-01-04T17:56:54.200Z,4.50
2019-01-04T17:59:41.746Z,4.50
2019-01-04T18:02:31.135Z,4.50
2019-01-04T18:05:18.970Z,4.50
2019-01-04T18:08:07.567Z,4.60
2019-01-04T18:10:54.846Z,4.60
2019-01-04T18:13:42.139Z,4.60
2019-01-04T18:16:29.789Z,4.60
2019-01-04T18:19:17.628Z,4.60
2019-01-04T18:22:05.280Z,4.60
2019-01-04T18:24:53.729Z,4.60
2019-01-04T18:27:41.410Z,4.70
2019-01-04T18:30:28.984Z,4.70
2019-01-04T18:33:19.601Z,4.70
2019-01-04T18:36:10.719Z,4.70
2019-01-04T18:38:58.780Z,4.70
2019-01-04T18:41:46.247Z,4.70
2019-01-04T18:44:33.908Z,4.80
2019-01-04T18:47:21.483Z,4.80
2019-01-04T18:50:12.434Z,4.80
2019-01-04T18:52:59.840Z,4.80
2019-01-04T18:55:48.919Z,4.80
2019-01-04T18:58:36.141Z,4.80
2019-01-04T19:01:23.544Z,4.80
2019-01-04T19:04:11.631Z,4.90
2019-01-04T19:06:58.792Z,4.90
2019-01-04T19:09:45.977Z,4.90
2019-01-04T19:12:33.300Z,5.00
2019-01-04T19:15:20.683Z,5.00
2019-01-04T19:18:08.228Z,5.00
2019-01-04T19:20:55.791Z,5.00
2019-01-04T19:23:43.450Z,5.00
2019-01-04T19:26:31.130Z,5.10
2019-01-04T19:29:18.484Z,5.00
2019-01-04T19:32:06.341Z,5.00
2019-01-04T19:34:54.327Z,5.00
2019-01-04T19:37:41.955Z,5.10
2019-01-04T19:40:29.468Z,5.10
2019-01-04T19:43:17.687Z,5.10
2019-01-04T19:46:04.888Z,5.10
2019-01-04T19:48:52.307Z,5.10
2019-01-04T19:51:40.211Z,5.10
2019-01-04T19:54:28.306Z,5.10
2019-01-04T19:57:16.207Z,5.10
2019-01-04T20:00:07.442Z,5.20
2019-01-04T20:02:55.083Z,5.20
2019-01-04T20:06:24.432Z,5.20
2019-01-04T20:10:18.559Z,5.20
2019-01-04T20:14:03.927Z,5.20
2019-01-04T20:17:31.383Z,5.20
2019-01-04T20:20:37.107Z,5.30
2019-01-04T20:23:46.342Z,5.30
2019-01-04T20:27:02.474Z,5.30
2019-01-04T20:30:15.263Z,5.30
2019-01-04T20:33:34.422Z,5.30
2019-01-04T20:36:32.507Z,5.30
2019-01-04T20:39:53.860Z,5.30
2019-01-04T20:43:04.215Z,5.30
2019-01-04T20:46:10.587Z,5.30
2019-01-04T20:49:17.370Z,5.30
2019-01-04T20:52:23.065Z,5.30
2019-01-04T20:55:29.772Z,5.30
2019-01-04T20:58:50.753Z,5.30
2019-01-04T21:02:12.707Z,5.40
2019-01-04T21:05:31.509Z,5.40
2019-01-04T21:08:48.108Z,5.40
2019-01-04T21:11:58.012Z,5.40
2019-01-04T21:15:17.095Z,5.40
2019-01-04T21:18:20.339Z,5.40
2019-01-04T21:21:24.966Z,5.40
2019-01-04T21:24:41.821Z,5.50
2019-01-04T21:27:57.582Z,5.50
2019-01-04T21:31:04.039Z,5.50
2019-01-04T21:34:09.344Z,5.50
2019-01-04T21:37:10.491Z,5.50
2019-01-04T21:40:11.892Z,5.50
2019-01-04T21:43:23.112Z,5.50
2019-01-04T21:46:28.883Z,5.50
2019-01-04T21:49:34.547Z,5.50
2019-01-04T21:52:41.368Z,5.60
2019-01-04T21:55:46.575Z,5.60
2019-01-04T21:58:52.052Z,5.60
2019-01-04T22:02:03.853Z,5.60
2019-01-04T22:05:10.466Z,5.60
2019-01-04T22:08:27.815Z,5.60
2019-01-04T22:11:44.853Z,5.60
2019-01-04T22:15:01.688Z,5.60
2019-01-04T22:18:08.528Z,5.60
2019-01-04T22:21:15.326Z,5.60
2019-01-04T22:24:21.826Z,5.60
2019-01-04T22:27:26.528Z,5.60
2019-01-04T22:30:32.351Z,5.60
2019-01-04T22:33:37.749Z,5.70
2019-01-04T22:36:52.322Z,5.70
2019-01-04T22:40:12.507Z,5.70
2019-01-04T22:43:23.798Z,5.70
2019-01-04T22:46:30.861Z,5.70
2019-01-04T22:49:36.613Z,5.70
2019-01-04T22:52:49.538Z,5.80
2019-01-04T22:56:03.738Z,5.80
2019-01-04T22:59:09.366Z,5.70
2019-01-04T23:02:19.061Z,5.80
2019-01-04T23:05:38.067Z,5.80
2019-01-04T23:09:02.962Z,5.80
2019-01-04T23:12:18.904Z,5.80
2019-01-04T23:15:24.366Z,5.80
2019-01-04T23:22:18.756Z,5.80
2019-01-04T23:25:25.468Z,5.90
2019-01-04T23:28:30.866Z,5.90
2019-01-04T23:31:37.330Z,5.90
2019-01-04T23:34:42.643Z,5.90
2019-01-04T23:37:47.842Z,5.90
2019-01-04T23:40:57.670Z,6.00
2019-01-04T23:44:05.635Z,6.00
2019-01-04T23:47:18.650Z,6.00
2019-01-04T23:50:29.391Z,6.00
2019-01-04T23:53:36.726Z,6.00
2019-01-04T23:56:43.922Z,6.00
2019-01-04T23:59:58.849Z,6.00
